Time;durP1;ratioP1;P1;durP2;ratioP2;P2;SDS_P1;SDS_P2;PMS_P1;PMS_P2;Temp;Humidity;BMP_temperature;BMP_pressure;BME280_temperature;BME280_humidity;BME280_pressure;Samples;Min_cycle;Max_cycle;Signal;HPM_P1;HPM_P2
2022/01/26 00:00:54;;;;;;;78.47;28.23;;;3.40;99.90;;;;;;6107206;23;20021;-79
2022/01/26 00:06:24;;;;;;;87.97;28.20;;;2.50;99.90;;;;;;6125012;23;20669;-79
2022/01/26 00:08:48;;;;;;;90.20;30.35;;;2.30;99.90;;;;;;6125793;23;20685;-79
2022/01/26 00:11:14;;;;;;;78.85;25.98;;;2.30;99.90;;;;;;6101903;23;20096;-79
2022/01/26 00:13:39;;;;;;;92.53;29.98;;;2.60;99.90;;;;;;6125877;23;20056;-79
2022/01/26 00:16:07;;;;;;;73.53;26.42;;;2.20;99.90;;;;;;6125861;23;20018;-78
2022/01/26 00:18:36;;;;;;;83.50;28.88;;;2.60;99.90;;;;;;6126075;23;20089;-79
2022/01/26 00:21:16;;;;;;;75.63;26.92;;;3.10;99.90;;;;;;6126270;23;20095;-79
2022/01/26 00:26:38;;;;;;;76.05;29.05;;;2.30;99.90;;;;;;6084486;23;20056;-79
2022/01/26 00:29:16;;;;;;;79.65;28.17;;;2.20;99.90;;;;;;6126080;23;20013;-79
2022/01/26 00:41:03;;;;;;;82.43;28.80;;;2.20;99.90;;;;;;6131056;23;20018;-79
2022/01/26 00:43:20;;;;;;;85.53;30.33;;;2.20;99.90;;;;;;6130799;23;20024;-79
2022/01/26 00:45:49;;;;;;;80.82;27.05;;;2.10;99.90;;;;;;6131282;23;20025;-79
2022/01/26 00:48:20;;;;;;;88.57;29.88;;;2.20;99.90;;;;;;6128076;23;20527;-80
2022/01/26 00:50:50;;;;;;;91.88;30.15;;;2.20;99.90;;;;;;6139091;23;20037;-79
2022/01/26 00:53:17;;;;;;;81.15;28.25;;;2.10;99.90;;;;;;6150592;23;20028;-79
2022/01/26 00:55:44;;;;;;;89.50;30.17;;;2.50;99.90;;;;;;6126212;23;20035;-79
2022/01/26 00:58:09;;;;;;;84.70;30.42;;;2.30;99.90;;;;;;6150180;23;20056;-79
2022/01/26 01:00:35;;;;;;;85.78;27.83;;;2.10;99.90;;;;;;6125885;23;20025;-79
2022/01/26 01:03:01;;;;;;;87.10;28.73;;;2.10;99.90;;;;;;6149762;23;20018;-79
2022/01/26 01:05:44;;;;;;;87.90;30.48;;;2.10;99.90;;;;;;6150363;23;20032;-80
2022/01/26 01:08:15;;;;;;;85.95;28.33;;;2.00;99.90;;;;;;6124638;23;20053;-79
2022/01/26 01:10:45;;;;;;;98.22;32.67;;;2.00;99.90;;;;;;6126179;23;20036;-79
2022/01/26 01:13:15;;;;;;;88.47;28.42;;;2.70;99.90;;;;;;6150169;23;20017;-79
2022/01/26 01:15:42;;;;;;;84.85;29.88;;;2.00;99.90;;;;;;6150005;23;20607;-79
2022/01/26 01:18:19;;;;;;;80.00;29.58;;;2.00;99.90;;;;;;6150227;23;20630;-79
2022/01/26 01:26:19;;;;;;;78.35;28.02;;;2.00;99.90;;;;;;6150344;23;20021;-79
2022/01/26 01:31:16;;;;;;;89.68;28.52;;;1.90;99.90;;;;;;6150433;23;20025;-79
2022/01/26 01:33:46;;;;;;;85.60;28.08;;;2.00;99.90;;;;;;6125916;23;20010;-79
2022/01/26 01:36:12;;;;;;;85.00;27.73;;;2.10;99.90;;;;;;6127476;23;20021;-79
2022/01/26 01:38:41;;;;;;;89.47;30.00;;;1.90;99.90;;;;;;6153606;23;20092;-80
2022/01/26 01:41:07;;;;;;;88.38;28.83;;;2.00;99.90;;;;;;6154097;23;20080;-79
2022/01/26 01:43:33;;;;;;;93.15;28.95;;;2.00;99.90;;;;;;6152571;23;20418;-80
2022/01/26 01:45:59;;;;;;;81.07;27.08;;;2.30;99.90;;;;;;6152472;23;20009;-79
2022/01/26 01:48:30;;;;;;;82.55;27.83;;;1.90;99.90;;;;;;6152924;23;20040;-79
2022/01/26 01:50:58;;;;;;;85.90;28.58;;;1.90;99.90;;;;;;6152742;23;20021;-79
2022/01/26 01:53:33;;;;;;;93.55;31.23;;;2.70;99.90;;;;;;6152800;23;20524;-79
2022/01/26 01:56:00;;;;;;;92.88;29.15;;;2.20;99.90;;;;;;6153079;23;20013;-79
2022/01/26 01:58:27;;;;;;;86.68;30.42;;;1.90;99.90;;;;;;6127260;23;20017;-79
2022/01/26 02:00:52;;;;;;;81.85;29.35;;;2.00;99.90;;;;;;6125579;23;20049;-79
2022/01/26 02:03:18;;;;;;;87.15;27.75;;;1.80;99.90;;;;;;6149755;23;20028;-79
2022/01/26 02:05:44;;;;;;;85.50;28.58;;;1.80;99.90;;;;;;6149798;23;20572;-79
2022/01/26 02:08:09;;;;;;;78.20;26.85;;;1.90;99.90;;;;;;6125036;23;20092;-79
2022/01/26 02:10:36;;;;;;;93.82;28.88;;;1.90;99.90;;;;;;6149827;23;20341;-79
2022/01/26 02:13:10;;;;;;;79.38;28.17;;;1.80;99.90;;;;;;6149675;23;20025;-79
2022/01/26 02:15:45;;;;;;;78.53;27.05;;;1.90;99.90;;;;;;6124537;23;20541;-79
2022/01/26 03:03:50;;;;;;;86.57;27.95;;;1.80;99.90;;;;;;6149496;23;20184;-79
2022/01/26 03:06:22;;;;;;;94.05;29.27;;;1.80;99.90;;;;;;6149357;23;20063;-79
2022/01/26 03:08:54;;;;;;;96.47;32.28;;;1.70;99.90;;;;;;6149670;23;20024;-79
2022/01/26 03:11:25;;;;;;;97.05;31.35;;;1.70;99.90;;;;;;6149550;23;20017;-79
2022/01/26 03:13:57;;;;;;;83.20;28.33;;;1.70;99.90;;;;;;6149279;23;20113;-79
2022/01/26 03:16:35;;;;;;;93.88;29.08;;;1.70;99.90;;;;;;6149614;23;20591;-79
2022/01/26 03:21:45;;;;;;;89.13;30.33;;;1.60;99.90;;;;;;6148880;23;20112;-79
2022/01/26 03:29:53;;;;;;;84.85;28.35;;;1.70;99.90;;;;;;6149279;23;20434;-79
2022/01/26 03:35:00;;;;;;;82.82;25.70;;;1.60;99.90;;;;;;6149230;23;20515;-79
2022/01/26 03:37:33;;;;;;;85.97;26.63;;;1.60;99.90;;;;;;6124931;23;20121;-79
2022/01/26 03:39:59;;;;;;;97.53;28.92;;;1.60;99.90;;;;;;6149214;23;20057;-79
2022/01/26 03:42:25;;;;;;;97.68;30.65;;;2.20;99.90;;;;;;6124407;23;20025;-79
2022/01/26 03:44:50;;;;;;;76.65;27.60;;;1.60;99.90;;;;;;6149030;23;20072;-80
2022/01/26 03:47:16;;;;;;;81.00;26.38;;;2.20;99.90;;;;;;6149078;23;20100;-80
2022/01/26 03:49:42;;;;;;;75.22;25.00;;;1.60;99.90;;;;;;6151492;23;20020;-80
2022/01/26 03:52:10;;;;;;;82.43;26.73;;;1.80;99.90;;;;;;6153381;23;20028;-80
2022/01/26 03:54:36;;;;;;;90.95;28.35;;;1.60;99.90;;;;;;6154108;23;20096;-80
2022/01/26 03:57:02;;;;;;;88.68;26.40;;;1.50;99.90;;;;;;6104964;23;20025;-80
2022/01/26 03:59:27;;;;;;;85.10;26.33;;;1.50;99.90;;;;;;6129686;23;20028;-80
2022/01/26 04:01:53;;;;;;;88.05;26.45;;;1.50;99.90;;;;;;6153574;23;20017;-80
2022/01/26 04:04:19;;;;;;;88.80;27.88;;;1.50;99.90;;;;;;6129610;23;20017;-80
2022/01/26 04:06:45;;;;;;;84.57;27.08;;;1.50;99.90;;;;;;6155473;23;20049;-80
2022/01/26 04:09:12;;;;;;;83.80;25.63;;;1.80;99.90;;;;;;6105949;23;20013;-80
2022/01/26 04:11:46;;;;;;;85.25;28.02;;;1.50;99.90;;;;;;6106683;23;20017;-80
2022/01/26 04:14:15;;;;;;;86.65;27.27;;;1.50;99.90;;;;;;6156337;23;20020;-80
2022/01/26 04:16:42;;;;;;;85.32;27.20;;;1.50;99.90;;;;;;6157670;23;20024;-80
2022/01/26 04:19:09;;;;;;;93.03;28.42;;;1.50;99.90;;;;;;6156397;23;20021;-80
2022/01/26 04:22:27;;;;;;;89.60;28.05;;;1.40;99.90;;;;;;6155311;23;20456;-80
2022/01/26 04:24:27;;;;;;;82.05;25.52;;;1.50;99.90;;;;;;6134958;23;20053;-80
2022/01/26 04:27:07;;;;;;;82.65;26.35;;;1.40;99.90;;;;;;6156021;23;20030;-80
2022/01/26 04:29:34;;;;;;;88.05;28.58;;;1.40;99.90;;;;;;6157250;23;20013;-80
2022/01/26 04:32:02;;;;;;;91.68;28.05;;;1.40;99.90;;;;;;6156096;23;20017;-80
2022/01/26 04:34:29;;;;;;;66.13;20.95;;;1.30;99.90;;;;;;6132359;23;20417;-80
2022/01/26 04:39:28;;;;;;;91.07;27.83;;;1.30;99.90;;;;;;6181875;23;20338;-80
2022/01/26 04:42:00;;;;;;;81.63;24.80;;;1.30;99.90;;;;;;6109487;23;20151;-80
2022/01/26 04:44:31;;;;;;;85.10;25.75;;;2.30;99.90;;;;;;6132915;23;20637;-80
2022/01/26 04:46:57;;;;;;;88.30;25.52;;;1.30;99.90;;;;;;6156007;23;20017;-80
2022/01/26 04:49:22;;;;;;;72.82;24.77;;;1.20;99.90;;;;;;6132200;23;20092;-80
2022/01/26 04:51:48;;;;;;;81.45;24.10;;;1.30;99.90;;;;;;6156695;23;20017;-80
2022/01/26 04:54:14;;;;;;;83.00;25.52;;;1.30;99.90;;;;;;6110345;23;20028;-79
2022/01/26 04:56:41;;;;;;;82.57;25.65;;;1.30;99.90;;;;;;6134087;23;20020;-80
2022/01/26 04:59:06;;;;;;;92.63;26.73;;;1.20;99.90;;;;;;6134178;23;20048;-80
2022/01/26 05:01:33;;;;;;;81.22;26.92;;;1.20;99.90;;;;;;6133655;23;20040;-80
2022/01/26 05:03:58;;;;;;;81.30;23.90;;;2.00;99.90;;;;;;6158388;23;20017;-80
2022/01/26 05:06:24;;;;;;;77.18;23.33;;;1.80;99.90;;;;;;6157965;23;20522;-80
2022/01/26 05:08:50;;;;;;;84.30;26.38;;;1.20;99.90;;;;;;6133447;23;20017;-80
2022/01/26 05:11:26;;;;;;;76.05;22.58;;;1.70;99.90;;;;;;6107796;23;20254;-80
2022/01/26 05:13:53;;;;;;;74.50;24.30;;;1.20;99.90;;;;;;6133450;23;20449;-80
2022/01/26 05:16:19;;;;;;;85.70;24.98;;;1.20;99.90;;;;;;6133811;23;20478;-80
2022/01/26 05:18:45;;;;;;;72.25;22.42;;;1.30;99.90;;;;;;6157899;23;20096;-80
2022/01/26 05:21:10;;;;;;;74.43;24.73;;;1.20;99.90;;;;;;6109547;23;20016;-79
2022/01/26 05:23:36;;;;;;;73.55;22.10;;;1.90;99.90;;;;;;6158365;23;20052;-80
2022/01/26 05:26:02;;;;;;;67.93;22.30;;;1.20;99.90;;;;;;6109691;23;20009;-79
2022/01/26 05:28:27;;;;;;;76.55;22.98;;;1.20;99.90;;;;;;6109588;23;20460;-79
2022/01/26 05:30:53;;;;;;;79.10;25.65;;;2.60;99.90;;;;;;6160301;23;20094;-79
2022/01/26 05:33:20;;;;;;;78.80;24.95;;;1.30;99.90;;;;;;6159281;23;20013;-79
2022/01/26 05:35:45;;;;;;;73.75;23.17;;;1.20;99.90;;;;;;6134304;23;20067;-79
2022/01/26 05:38:11;;;;;;;88.55;25.70;;;1.30;99.90;;;;;;6160034;23;20623;-79
2022/01/26 05:40:37;;;;;;;82.07;25.40;;;1.20;99.90;;;;;;6162680;23;20028;-79
2022/01/26 05:43:02;;;;;;;79.75;23.13;;;1.30;99.90;;;;;;6132671;23;20021;-79
2022/01/26 05:45:34;;;;;;;73.20;23.42;;;1.20;99.90;;;;;;6108364;23;20032;-79
2022/01/26 05:48:03;;;;;;;77.60;23.55;;;1.20;99.90;;;;;;6110759;23;20507;-79
2022/01/26 05:50:31;;;;;;;77.38;23.65;;;1.20;99.90;;;;;;6132331;23;20013;-79
2022/01/26 05:52:57;;;;;;;80.75;25.15;;;1.20;99.90;;;;;;6135659;23;20025;-79
2022/01/26 05:55:23;;;;;;;75.68;23.17;;;1.20;99.90;;;;;;6108922;23;20018;-79
2022/01/26 05:57:49;;;;;;;77.38;23.83;;;1.20;99.90;;;;;;6129514;23;20025;-79
2022/01/26 06:00:15;;;;;;;80.50;24.77;;;1.40;99.90;;;;;;6130016;23;20064;-79
2022/01/26 06:02:41;;;;;;;81.50;24.35;;;1.20;99.90;;;;;;6103339;23;20021;-79
2022/01/26 06:05:07;;;;;;;71.82;22.90;;;1.20;99.90;;;;;;6128590;23;20177;-80
2022/01/26 06:07:33;;;;;;;68.38;24.52;;;1.20;99.90;;;;;;6128341;23;20017;-80
2022/01/26 06:09:58;;;;;;;84.85;24.23;;;1.60;99.90;;;;;;6128626;23;20026;-80
2022/01/26 06:12:24;;;;;;;69.93;22.55;;;1.20;99.90;;;;;;6104200;23;20073;-79
2022/01/26 06:14:50;;;;;;;73.88;22.38;;;1.20;99.90;;;;;;6128977;23;20033;-80
2022/01/26 06:17:15;;;;;;;64.93;22.02;;;1.20;99.90;;;;;;6114364;23;20029;-79
2022/01/26 06:19:41;;;;;;;72.97;23.88;;;1.20;99.90;;;;;;6154051;23;20040;-79
2022/01/26 06:22:07;;;;;;;71.45;23.95;;;1.20;99.90;;;;;;6147065;23;20453;-80
2022/01/26 06:24:32;;;;;;;73.47;22.55;;;1.20;99.90;;;;;;6106247;23;20020;-81
2022/01/26 06:26:58;;;;;;;75.43;23.40;;;1.20;99.90;;;;;;6130221;23;20060;-81
2022/01/26 06:29:24;;;;;;;68.60;23.02;;;1.20;99.90;;;;;;6130237;23;20021;-81
2022/01/26 06:31:50;;;;;;;70.65;23.13;;;1.50;99.90;;;;;;6105055;23;20017;-80
2022/01/26 06:34:16;;;;;;;72.90;22.55;;;1.20;99.90;;;;;;6127736;23;20018;-81
2022/01/26 06:36:43;;;;;;;72.88;23.40;;;1.50;99.90;;;;;;6131913;23;20131;-81
2022/01/26 06:39:13;;;;;;;71.18;22.13;;;1.20;99.90;;;;;;6130153;23;20021;-81
2022/01/26 06:41:46;;;;;;;65.50;23.02;;;1.30;99.90;;;;;;6131258;23;20036;-81
2022/01/26 06:44:22;;;;;;;68.35;21.33;;;1.20;99.90;;;;;;6107584;23;20241;-81
2022/01/26 06:47:01;;;;;;;83.07;23.52;;;1.30;99.90;;;;;;6141282;23;20025;-81
2022/01/26 06:49:30;;;;;;;67.85;22.08;;;1.20;99.90;;;;;;6138962;23;20055;-79
2022/01/26 06:51:57;;;;;;;62.33;20.00;;;1.20;99.90;;;;;;6128773;23;20035;-79
2022/01/26 06:54:23;;;;;;;69.93;23.02;;;1.30;99.90;;;;;;6160113;23;20036;-78
2022/01/26 06:56:49;;;;;;;61.90;23.08;;;1.20;99.90;;;;;;6156898;23;20021;-80
2022/01/26 06:59:15;;;;;;;64.93;20.77;;;1.30;99.90;;;;;;6128372;23;20376;-80
2022/01/26 07:01:41;;;;;;;73.32;23.08;;;1.30;99.90;;;;;;6122209;23;20712;-80
2022/01/26 07:04:07;;;;;;;67.93;21.63;;;1.30;99.90;;;;;;6117634;23;20025;-80
2022/01/26 07:06:33;;;;;;;67.70;22.10;;;1.30;99.90;;;;;;6143630;23;20054;-79
2022/01/26 07:08:59;;;;;;;76.07;22.17;;;1.20;99.90;;;;;;6119095;23;20016;-79
2022/01/26 07:11:25;;;;;;;65.53;22.15;;;1.20;99.90;;;;;;6119588;23;20049;-81
2022/01/26 07:13:57;;;;;;;65.47;21.35;;;1.30;99.90;;;;;;6118967;23;20024;-81
2022/01/26 07:21:52;;;;;;;67.13;22.02;;;1.30;99.90;;;;;;6143089;23;20092;-81
2022/01/26 07:24:18;;;;;;;63.40;20.23;;;1.90;99.90;;;;;;6146479;23;20044;-81
2022/01/26 07:26:45;;;;;;;65.45;19.65;;;1.30;99.90;;;;;;6143686;23;20681;-81
2022/01/26 07:29:11;;;;;;;63.13;18.77;;;1.30;99.90;;;;;;6143798;23;20014;-81
2022/01/26 07:31:42;;;;;;;64.30;19.77;;;1.30;99.90;;;;;;6117772;23;20028;-80
2022/01/26 07:34:10;;;;;;;64.90;20.60;;;1.40;99.90;;;;;;6144325;23;20014;-82
2022/01/26 07:36:36;;;;;;;67.07;21.33;;;1.40;99.90;;;;;;6118038;23;20025;-82
2022/01/26 07:39:07;;;;;;;62.08;19.25;;;1.30;99.90;;;;;;6142379;23;20113;-82
2022/01/26 07:41:34;;;;;;;58.03;18.67;;;1.30;99.90;;;;;;6143871;23;20040;-82
2022/01/26 07:44:00;;;;;;;55.13;18.52;;;1.40;99.90;;;;;;6118527;23;20017;-82
2022/01/26 07:46:27;;;;;;;56.92;18.55;;;1.60;99.90;;;;;;6144779;23;20224;-82
2022/01/26 07:48:53;;;;;;;53.17;18.02;;;1.40;99.90;;;;;;6144642;23;20013;-83
2022/01/26 07:51:20;;;;;;;53.80;18.48;;;1.40;99.90;;;;;;6119267;23;20108;-80
2022/01/26 07:53:46;;;;;;;57.80;18.45;;;1.40;99.90;;;;;;6122954;23;20132;-82
2022/01/26 07:56:12;;;;;;;65.72;20.33;;;1.40;99.90;;;;;;6146665;23;20018;-82
2022/01/26 07:58:39;;;;;;;67.15;21.05;;;1.40;99.90;;;;;;6144419;23;20092;-82
2022/01/26 08:01:05;;;;;;;61.70;20.55;;;1.40;99.90;;;;;;6146412;23;20103;-80
2022/01/26 08:03:33;;;;;;;54.75;19.30;;;1.40;99.90;;;;;;6145246;23;20021;-79
2022/01/26 08:06:03;;;;;;;68.35;22.65;;;1.50;99.90;;;;;;6142292;23;20562;-82
2022/01/26 08:08:30;;;;;;;54.70;21.48;;;1.40;99.90;;;;;;6159185;23;20032;-82
2022/01/26 08:10:57;;;;;;;67.47;23.52;;;1.50;99.90;;;;;;6151958;23;20120;-81
2022/01/26 08:13:23;;;;;;;73.32;24.33;;;2.00;99.90;;;;;;6143300;23;20073;-81
2022/01/26 08:15:48;;;;;;;65.70;23.17;;;1.50;99.90;;;;;;6143499;23;20021;-83
2022/01/26 08:18:14;;;;;;;69.88;24.73;;;1.50;99.90;;;;;;6125360;23;20013;-81
2022/01/26 08:20:40;;;;;;;68.30;24.33;;;1.60;99.90;;;;;;6155915;23;20351;-79
2022/01/26 08:23:07;;;;;;;73.20;24.40;;;1.50;99.90;;;;;;6141262;23;20022;-84
2022/01/26 08:25:32;;;;;;;77.53;26.50;;;1.50;99.90;;;;;;6142368;23;20018;-82
2022/01/26 08:28:08;;;;;;;73.53;23.33;;;1.50;99.90;;;;;;6139683;23;20084;-82
2022/01/26 08:30:37;;;;;;;75.40;26.55;;;1.60;99.90;;;;;;6128602;23;20017;-82
2022/01/26 08:33:05;;;;;;;80.55;26.67;;;1.60;99.90;;;;;;6154573;23;20342;-81
2022/01/26 08:35:32;;;;;;;82.53;26.48;;;2.40;99.90;;;;;;6153040;23;20024;-82
2022/01/26 08:37:58;;;;;;;78.88;27.17;;;2.60;99.90;;;;;;6154704;23;20055;-82
2022/01/26 08:40:24;;;;;;;76.97;26.33;;;1.60;99.90;;;;;;6154234;23;20021;-81
2022/01/26 08:42:50;;;;;;;82.57;28.02;;;2.50;99.90;;;;;;6156341;23;20026;-82
2022/01/26 08:45:15;;;;;;;80.93;29.17;;;2.10;99.90;;;;;;6130201;23;20544;-82
2022/01/26 08:47:41;;;;;;;84.15;28.02;;;2.80;99.90;;;;;;6136026;23;20017;-82
2022/01/26 08:50:08;;;;;;;84.55;30.90;;;1.70;99.90;;;;;;6157656;23;20026;-81
2022/01/26 08:52:34;;;;;;;86.28;29.58;;;1.70;99.90;;;;;;6129263;23;20029;-81
2022/01/26 08:55:00;;;;;;;97.65;30.50;;;1.70;99.90;;;;;;6132886;23;20018;-81
2022/01/26 08:57:26;;;;;;;96.07;30.60;;;1.70;99.90;;;;;;6162322;23;20274;-81
2022/01/26 08:59:52;;;;;;;91.18;31.77;;;1.70;99.90;;;;;;6164209;23;20051;-79
2022/01/26 09:02:18;;;;;;;92.22;31.08;;;1.70;99.90;;;;;;6157518;23;20033;-81
2022/01/26 09:04:44;;;;;;;94.55;30.85;;;1.70;99.90;;;;;;6134527;23;20078;-81
2022/01/26 09:07:14;;;;;;;89.80;30.17;;;1.70;99.90;;;;;;6156540;23;20184;-81
2022/01/26 09:09:45;;;;;;;107.40;32.90;;;1.70;99.90;;;;;;6156842;23;20021;-81
2022/01/26 09:12:13;;;;;;;100.32;33.60;;;1.70;99.90;;;;;;6157976;23;20018;-82
2022/01/26 09:14:39;;;;;;;97.78;33.33;;;1.80;99.90;;;;;;6157965;23;20049;-80
2022/01/26 09:17:07;;;;;;;107.25;35.72;;;1.80;99.90;;;;;;6156689;23;20025;-81
2022/01/26 09:19:35;;;;;;;118.53;36.47;;;1.80;99.90;;;;;;6130350;23;20051;-81
2022/01/26 09:22:04;;;;;;;101.80;34.67;;;1.90;99.90;;;;;;6133677;23;20025;-81
2022/01/26 09:24:31;;;;;;;112.57;35.50;;;1.80;99.90;;;;;;6119268;23;20070;-80
2022/01/26 09:26:58;;;;;;;104.43;36.20;;;1.90;99.90;;;;;;6118410;23;20056;-80
2022/01/26 09:29:24;;;;;;;109.38;38.40;;;1.90;99.90;;;;;;6119383;23;20093;-79
2022/01/26 09:31:50;;;;;;;110.00;35.53;;;1.90;99.90;;;;;;6142902;23;20411;-78
2022/01/26 09:34:17;;;;;;;109.88;35.85;;;1.90;99.90;;;;;;6119034;23;20014;-79
2022/01/26 09:36:44;;;;;;;107.75;37.58;;;1.90;99.90;;;;;;6142052;23;20076;-79
2022/01/26 09:39:11;;;;;;;106.75;38.63;;;1.90;99.90;;;;;;6118767;23;20138;-81
2022/01/26 09:41:38;;;;;;;102.80;38.17;;;2.00;99.90;;;;;;6118956;23;20040;-80
2022/01/26 09:44:06;;;;;;;114.53;37.50;;;2.90;99.90;;;;;;6116803;23;20465;-80
2022/01/26 09:46:33;;;;;;;116.38;38.28;;;2.00;99.90;;;;;;6116983;23;20277;-80
2022/01/26 09:49:01;;;;;;;109.28;38.90;;;2.00;99.90;;;;;;6116416;23;20029;-81
2022/01/26 09:51:27;;;;;;;113.68;40.08;;;2.00;99.90;;;;;;6141181;23;20061;-81
2022/01/26 09:54:04;;;;;;;120.75;39.65;;;2.10;99.90;;;;;;6116914;23;20037;-81
2022/01/26 09:56:30;;;;;;;123.38;41.90;;;2.00;99.90;;;;;;6116991;23;20017;-80
2022/01/26 09:58:57;;;;;;;116.10;38.17;;;2.40;99.90;;;;;;6115533;23;20025;-80
2022/01/26 10:01:23;;;;;;;128.70;41.95;;;2.10;99.90;;;;;;6115883;23;20088;-81
2022/01/26 10:03:50;;;;;;;132.73;41.47;;;2.10;99.90;;;;;;6116335;23;20017;-82
2022/01/26 10:06:28;;;;;;;125.32;40.90;;;2.10;99.90;;;;;;6140984;23;20022;-83
2022/01/26 10:09:03;;;;;;;129.60;43.20;;;2.10;99.90;;;;;;6140863;23;20018;-81
2022/01/26 10:17:25;;;;;;;127.18;43.28;;;2.20;99.90;;;;;;6141140;23;20021;-82
2022/01/26 10:19:57;;;;;;;126.47;41.30;;;2.20;99.90;;;;;;6115527;23;20029;-82
2022/01/26 10:22:32;;;;;;;122.53;42.30;;;2.30;99.90;;;;;;6140382;23;20013;-81
2022/01/26 10:25:15;;;;;;;129.40;43.58;;;2.30;99.90;;;;;;6140569;23;20435;-80
2022/01/26 10:27:43;;;;;;;132.32;46.55;;;2.30;99.90;;;;;;6118230;23;20080;-81
2022/01/26 10:30:13;;;;;;;126.38;42.85;;;2.30;99.90;;;;;;6141892;23;20025;-80
2022/01/26 10:32:41;;;;;;;125.28;43.70;;;2.40;99.90;;;;;;6141814;23;20390;-82
2022/01/26 10:35:08;;;;;;;123.40;42.65;;;2.40;99.90;;;;;;6142861;23;20109;-82
2022/01/26 10:37:34;;;;;;;135.55;43.75;;;2.40;99.90;;;;;;6115615;23;20029;-82
2022/01/26 10:40:10;;;;;;;126.82;41.50;;;2.50;99.90;;;;;;6116623;23;20021;-82
2022/01/26 10:42:36;;;;;;;115.45;40.55;;;2.50;99.90;;;;;;6104796;23;20459;-82
2022/01/26 10:45:15;;;;;;;128.43;42.67;;;2.50;99.90;;;;;;6140762;23;20029;-83
2022/01/26 10:47:46;;;;;;;121.60;42.70;;;2.60;99.90;;;;;;6117363;23;20097;-82
2022/01/26 10:53:12;;;;;;;125.68;41.80;;;2.60;99.90;;;;;;6144674;23;20586;-82
2022/01/26 10:55:39;;;;;;;127.55;43.00;;;2.60;99.90;;;;;;6145673;23;20024;-81
2022/01/26 10:58:07;;;;;;;121.78;40.83;;;2.70;99.90;;;;;;6145231;23;20021;-80
2022/01/26 11:00:42;;;;;;;119.65;41.30;;;2.70;99.90;;;;;;6145380;23;20077;-80
2022/01/26 11:03:08;;;;;;;118.97;40.17;;;3.00;99.90;;;;;;6144745;23;20468;-79
2022/01/26 11:05:34;;;;;;;118.70;42.08;;;2.70;99.90;;;;;;6118081;23;20067;-80
2022/01/26 11:08:02;;;;;;;118.35;40.92;;;2.90;99.90;;;;;;6145793;23;20017;-81
2022/01/26 11:10:32;;;;;;;118.03;41.70;;;2.80;99.90;;;;;;6121694;23;20020;-81
2022/01/26 11:12:58;;;;;;;112.15;40.53;;;3.10;99.90;;;;;;6148078;23;20048;-79
2022/01/26 11:15:24;;;;;;;121.68;40.50;;;2.90;99.90;;;;;;6117905;23;20051;-78
2022/01/26 11:17:51;;;;;;;123.30;40.58;;;2.90;99.90;;;;;;6169734;23;20025;-80
2022/01/26 11:20:28;;;;;;;115.05;39.80;;;2.90;99.90;;;;;;6145177;23;20858;-81
2022/01/26 11:22:56;;;;;;;112.45;36.95;;;2.90;99.90;;;;;;6143976;23;20032;-80
2022/01/26 11:25:24;;;;;;;112.40;38.95;;;3.00;99.90;;;;;;6145475;23;20044;-79
2022/01/26 11:27:52;;;;;;;111.15;38.28;;;3.00;99.90;;;;;;6168989;23;20060;-80
2022/01/26 11:30:21;;;;;;;119.00;39.38;;;3.00;99.90;;;;;;6120042;23;20028;-81
2022/01/26 11:33:04;;;;;;;114.60;39.85;;;3.00;99.90;;;;;;6144697;23;20131;-81
2022/01/26 11:35:36;;;;;;;112.32;38.20;;;3.00;99.90;;;;;;6120350;23;20353;-81
2022/01/26 11:38:16;;;;;;;120.30;40.27;;;3.00;99.90;;;;;;6145668;23;20021;-81
2022/01/26 11:46:35;;;;;;;110.82;37.05;;;3.00;99.90;;;;;;6144972;23;20048;-81
2022/01/26 11:49:11;;;;;;;112.00;37.97;;;3.10;99.90;;;;;;6145380;23;20075;-81
2022/01/26 11:51:50;;;;;;;99.35;35.65;;;3.10;99.90;;;;;;6115251;23;20025;-80
2022/01/26 11:54:22;;;;;;;109.57;37.17;;;3.10;99.90;;;;;;6141478;23;20401;-81
2022/01/26 11:57:01;;;;;;;96.78;33.60;;;3.10;99.90;;;;;;6122346;23;20040;-80
2022/01/26 11:59:29;;;;;;;111.00;38.05;;;3.10;99.90;;;;;;6141873;23;20925;-81
2022/01/26 12:02:00;;;;;;;107.15;37.25;;;3.10;99.90;;;;;;6144192;23;20072;-81
2022/01/26 12:04:26;;;;;;;104.90;35.95;;;3.10;99.90;;;;;;6133794;23;20074;-81
2022/01/26 12:07:00;;;;;;;116.65;36.40;;;3.10;99.90;;;;;;6165575;23;20036;-82
2022/01/26 12:09:26;;;;;;;116.07;35.15;;;3.20;99.90;;;;;;6149065;23;20088;-82
2022/01/26 12:11:55;;;;;;;96.47;37.72;;;3.40;99.90;;;;;;6123503;23;20052;-82
2022/01/26 12:14:22;;;;;;;89.65;32.22;;;3.20;99.90;;;;;;6121726;23;20270;-82
2022/01/26 12:16:52;;;;;;;90.00;32.60;;;3.20;99.90;;;;;;6143229;23;20048;-82
2022/01/26 12:36:31;;;;;;;91.22;32.03;;;3.20;99.90;;;;;;6140075;23;20028;-81
2022/01/26 12:38:59;;;;;;;97.22;33.30;;;3.20;99.90;;;;;;6142384;23;20072;-81
2022/01/26 12:41:32;;;;;;;84.15;29.30;;;3.30;99.90;;;;;;6141866;23;20018;-80
2022/01/26 12:43:59;;;;;;;89.63;29.00;;;3.80;99.90;;;;;;6116429;23;20024;-80
2022/01/26 12:46:30;;;;;;;82.00;27.95;;;3.30;99.90;;;;;;6141779;23;20014;-80
2022/01/26 12:48:59;;;;;;;87.68;31.45;;;3.40;99.90;;;;;;6142020;23;20095;-79
2022/01/26 12:51:29;;;;;;;79.95;29.67;;;3.40;99.90;;;;;;6141127;23;20032;-80
2022/01/26 12:54:02;;;;;;;75.95;27.63;;;3.40;99.90;;;;;;6117341;23;20022;-80
2022/01/26 12:56:30;;;;;;;85.40;32.13;;;3.40;99.90;;;;;;6117344;23;20029;-80
2022/01/26 12:59:09;;;;;;;80.30;29.63;;;3.40;99.90;;;;;;6117035;23;20017;-84
2022/01/26 13:01:36;;;;;;;86.80;30.10;;;3.40;99.90;;;;;;6092831;23;20032;-84
2022/01/26 13:04:08;;;;;;;76.60;28.83;;;3.40;99.90;;;;;;6094105;23;20017;-82
2022/01/26 13:06:37;;;;;;;79.85;28.80;;;3.40;99.90;;;;;;6092007;23;20068;-83
2022/01/26 13:09:19;;;;;;;84.03;28.90;;;4.70;99.90;;;;;;6092792;23;20018;-83
2022/01/26 13:11:46;;;;;;;68.67;28.23;;;3.40;99.90;;;;;;6093259;23;20534;-82
2022/01/26 13:14:21;;;;;;;79.00;26.88;;;3.50;99.90;;;;;;6116618;23;20061;-82
2022/01/26 13:22:57;;;;;;;71.43;26.13;;;3.50;99.90;;;;;;6117790;23;20818;-83
2022/01/26 13:25:40;;;;;;;62.45;23.30;;;3.50;99.90;;;;;;6116694;23;20070;-79
2022/01/26 13:39:15;;;;;;;71.07;26.30;;;3.50;99.90;;;;;;6116894;23;20516;-78
2022/01/26 13:42:13;;;;;;;67.72;27.55;;;3.60;99.90;;;;;;6092646;23;20108;-79
2022/01/26 13:52:29;;;;;;;72.93;27.20;;;3.60;99.90;;;;;;6131727;23;20523;-81
2022/01/26 14:00:09;;;;;;;74.00;27.85;;;3.50;99.90;;;;;;6146459;23;20103;-81
2022/01/26 14:02:37;;;;;;;80.20;26.88;;;3.60;99.90;;;;;;6120781;23;20017;-80
2022/01/26 14:05:04;;;;;;;72.78;25.65;;;3.60;99.90;;;;;;6096692;23;20087;-80
2022/01/26 14:07:29;;;;;;;68.38;27.40;;;3.60;99.90;;;;;;6144378;23;20752;-80
2022/01/26 14:09:55;;;;;;;74.05;26.33;;;3.60;99.90;;;;;;6097186;23;20056;-80
2022/01/26 14:12:26;;;;;;;76.07;27.25;;;3.40;99.90;;;;;;6146098;23;20450;-80
2022/01/26 14:14:55;;;;;;;79.07;29.63;;;3.80;99.90;;;;;;6121612;23;20084;-80
2022/01/26 14:17:56;;;;;;;69.72;27.98;;;3.60;99.90;;;;;;6121932;23;20040;-79
2022/01/26 14:20:18;;;;;;;75.93;27.17;;;3.60;99.90;;;;;;6147217;23;20020;-78
2022/01/26 14:23:03;;;;;;;74.22;28.10;;;3.60;99.90;;;;;;6122115;23;20051;-78
2022/01/26 14:25:31;;;;;;;76.30;26.52;;;3.60;99.90;;;;;;6145397;23;20023;-79
2022/01/26 14:28:04;;;;;;;72.50;27.65;;;3.50;99.90;;;;;;6096981;23;20107;-78
2022/01/26 15:22:46;;;;;;;77.65;27.75;;;4.10;99.90;;;;;;6145093;23;20025;-78
2022/01/26 15:31:19;;;;;;;69.65;26.60;;;3.70;99.90;;;;;;6153747;23;20524;-81
2022/01/26 16:21:43;;;;;;;63.92;26.63;;;3.80;99.90;;;;;;6123936;23;20025;-79
2022/01/26 17:47:02;;;;;;;75.38;26.75;;;3.90;99.90;;;;;;6123260;23;20017;-78
2022/01/26 18:25:51;;;;;;;72.68;28.80;;;3.90;99.90;;;;;;6121195;23;20445;-78
2022/01/26 18:26:43;;;;;;;70.88;27.85;;;4.00;99.90;;;;;;6121753;23;20028;-79
2022/01/26 18:32:15;;;;;;;63.85;26.67;;;3.90;99.90;;;;;;6076988;23;20213;-79
2022/01/26 18:51:05;;;;;;;75.80;27.08;;;4.10;99.90;;;;;;6120663;23;20104;-79
2022/01/26 18:53:31;;;;;;;72.18;27.48;;;4.10;99.90;;;;;;6140074;23;20113;-79
2022/01/26 18:55:57;;;;;;;64.88;24.48;;;4.10;99.90;;;;;;6145843;23;20097;-79
2022/01/26 18:58:23;;;;;;;66.47;26.90;;;4.60;99.90;;;;;;6145445;23;20124;-78
2022/01/26 19:00:48;;;;;;;67.30;27.60;;;4.10;99.90;;;;;;6145278;23;20025;-78
2022/01/26 19:03:14;;;;;;;70.18;25.60;;;4.10;99.90;;;;;;6145340;23;20021;-78
2022/01/26 19:05:40;;;;;;;59.13;24.65;;;4.20;99.90;;;;;;6146312;23;20037;-78
2022/01/26 19:08:06;;;;;;;60.90;26.55;;;4.20;99.90;;;;;;6144851;23;20017;-78
2022/01/26 19:10:32;;;;;;;66.97;25.40;;;4.20;99.90;;;;;;6120713;23;20017;-78
2022/01/26 19:12:58;;;;;;;66.60;25.95;;;4.40;99.90;;;;;;6144915;23;20020;-78
2022/01/26 19:15:28;;;;;;;65.15;27.40;;;4.20;99.90;;;;;;6120317;23;20017;-78